Time;durP1;ratioP1;P1;durP2;ratioP2;P2;SDS_P1;SDS_P2;PMS_P1;PMS_P2;Temp;Humidity;BMP_temperature;BMP_pressure;BME280_temperature;BME280_humidity;BME280_pressure;Samples;Min_cycle;Max_cycle;Signal;HPM_P1;HPM_P2
2021/05/31 00:00:58;;;;;;;0.10;0.10;;;;;;;;;;5133725;27;20210;-71
2021/05/31 00:03:24;;;;;;;0.10;0.10;;;;;;;;;;5127413;28;20282;-71
2021/05/31 00:05:51;;;;;;;0.10;0.10;;;;;;;;;;5130310;28;20225;-71
2021/05/31 00:08:16;;;;;;;0.00;0.00;;;;;;;;;;5125998;28;20243;-71
2021/05/31 00:10:42;;;;;;;0.10;0.10;;;;;;;;;;5128875;27;20204;-72
2021/05/31 00:13:08;;;;;;;0.10;0.10;;;;;;;;;;5125814;28;20374;-72
2021/05/31 00:15:34;;;;;;;0.10;0.10;;;;;;;;;;5125275;28;20210;-71
2021/05/31 00:18:00;;;;;;;0.10;0.10;;;;;;;;;;5123824;28;20208;-70
2021/05/31 00:20:26;;;;;;;0.10;0.10;;;;;;;;;;5123682;28;20200;-71
2021/05/31 00:22:53;;;;;;;0.10;0.10;;;;;;;;;;5136972;28;20524;-71
2021/05/31 00:25:18;;;;;;;0.10;0.10;;;;;;;;;;5135500;27;20207;-71
2021/05/31 00:27:44;;;;;;;0.10;0.10;;;;;;;;;;5135790;28;20428;-70
2021/05/31 00:30:11;;;;;;;0.10;0.10;;;;;;;;;;5139302;27;20221;-71
2021/05/31 00:32:37;;;;;;;0.10;0.10;;;;;;;;;;5129937;27;20207;-71
2021/05/31 00:35:03;;;;;;;0.10;0.10;;;;;;;;;;5133407;27;20202;-71
2021/05/31 00:37:29;;;;;;;0.10;0.10;;;;;;;;;;5127469;28;20500;-71
2021/05/31 00:39:56;;;;;;;0.10;0.10;;;;;;;;;;5129104;27;20264;-71
2021/05/31 00:42:21;;;;;;;0.10;0.10;;;;;;;;;;5131390;27;20498;-71
2021/05/31 00:44:47;;;;;;;0.10;0.10;;;;;;;;;;5148171;27;20209;-71
2021/05/31 00:47:13;;;;;;;0.10;0.10;;;;;;;;;;5135342;27;20210;-70
2021/05/31 00:49:39;;;;;;;0.10;0.10;;;;;;;;;;5147539;27;20216;-71
2021/05/31 00:52:05;;;;;;;0.10;0.10;;;;;;;;;;5129549;27;20274;-71
2021/05/31 00:54:31;;;;;;;0.10;0.10;;;;;;;;;;5126776;28;20202;-71
2021/05/31 00:56:57;;;;;;;0.10;0.10;;;;;;;;;;5138196;27;20236;-71
2021/05/31 00:59:23;;;;;;;0.10;0.10;;;;;;;;;;5133184;27;20202;-72
2021/05/31 01:01:49;;;;;;;0.10;0.10;;;;;;;;;;5129318;27;20209;-68
2021/05/31 01:04:16;;;;;;;0.10;0.10;;;;;;;;;;5137751;27;20322;-70
2021/05/31 01:06:49;;;;;;;0.10;0.10;;;;;;;;;;5157166;27;20200;-72
2021/05/31 01:09:17;;;;;;;0.10;0.10;;;;;;;;;;5147255;27;20262;-72
2021/05/31 01:11:45;;;;;;;0.10;0.10;;;;;;;;;;5129994;27;20218;-71
2021/05/31 01:14:15;;;;;;;0.10;0.10;;;;;;;;;;5134958;27;20282;-71
2021/05/31 01:16:45;;;;;;;0.10;0.10;;;;;;;;;;5128653;27;20193;-72
2021/05/31 01:19:13;;;;;;;0.10;0.10;;;;;;;;;;5128450;27;20198;-71
2021/05/31 01:21:45;;;;;;;0.10;0.10;;;;;;;;;;5128804;27;20198;-71
2021/05/31 01:24:14;;;;;;;0.10;0.10;;;;;;;;;;5143506;27;20200;-72
2021/05/31 01:26:43;;;;;;;0.10;0.10;;;;;;;;;;5132700;27;20505;-71
2021/05/31 01:29:11;;;;;;;0.10;0.10;;;;;;;;;;5132978;27;20450;-71
2021/05/31 01:31:39;;;;;;;0.10;0.10;;;;;;;;;;5130591;27;20209;-71
2021/05/31 01:34:06;;;;;;;0.10;0.10;;;;;;;;;;5131191;27;20280;-70
2021/05/31 01:36:33;;;;;;;0.10;0.10;;;;;;;;;;5136536;27;20464;-70
2021/05/31 01:39:00;;;;;;;0.10;0.10;;;;;;;;;;5142580;27;20221;-70
2021/05/31 01:41:26;;;;;;;0.10;0.10;;;;;;;;;;5137745;27;20206;-71
2021/05/31 01:43:52;;;;;;;0.10;0.10;;;;;;;;;;5125983;27;20217;-71
2021/05/31 01:46:20;;;;;;;0.10;0.10;;;;;;;;;;5142129;27;20197;-71
2021/05/31 01:48:47;;;;;;;0.10;0.10;;;;;;;;;;5144856;27;20278;-71
2021/05/31 01:51:13;;;;;;;0.10;0.10;;;;;;;;;;5126875;27;20380;-72
2021/05/31 01:53:40;;;;;;;0.10;0.10;;;;;;;;;;5125836;28;20281;-72
2021/05/31 01:56:06;;;;;;;0.10;0.10;;;;;;;;;;5125320;28;20434;-71
2021/05/31 01:58:32;;;;;;;0.10;0.10;;;;;;;;;;5125646;28;20269;-72
2021/05/31 02:00:58;;;;;;;0.10;0.10;;;;;;;;;;5139498;27;20281;-71
2021/05/31 02:03:25;;;;;;;0.10;0.10;;;;;;;;;;5125810;28;20522;-70
2021/05/31 02:05:51;;;;;;;0.10;0.10;;;;;;;;;;5135569;27;20392;-70
2021/05/31 02:08:16;;;;;;;0.10;0.10;;;;;;;;;;5126044;27;20303;-70
2021/05/31 02:10:42;;;;;;;0.10;0.10;;;;;;;;;;5126680;27;20387;-71
2021/05/31 02:13:12;;;;;;;0.10;0.10;;;;;;;;;;5136077;27;20269;-69
2021/05/31 02:15:43;;;;;;;0.10;0.10;;;;;;;;;;5130256;27;20536;-70
2021/05/31 02:18:11;;;;;;;0.10;0.10;;;;;;;;;;5128267;27;20196;-70
2021/05/31 02:20:38;;;;;;;0.10;0.10;;;;;;;;;;5125199;28;20299;-69
2021/05/31 02:23:05;;;;;;;0.10;0.10;;;;;;;;;;5139108;27;20397;-69
2021/05/31 02:25:31;;;;;;;0.10;0.10;;;;;;;;;;5125260;28;20250;-70
2021/05/31 02:27:58;;;;;;;0.10;0.10;;;;;;;;;;5125041;28;20253;-71
2021/05/31 02:30:24;;;;;;;0.10;0.10;;;;;;;;;;5124569;27;20213;-71
2021/05/31 02:32:51;;;;;;;0.10;0.10;;;;;;;;;;5124816;27;20204;-71
2021/05/31 02:35:17;;;;;;;0.10;0.10;;;;;;;;;;5132093;27;20204;-71
2021/05/31 02:37:44;;;;;;;0.10;0.10;;;;;;;;;;5127902;27;20218;-71
2021/05/31 02:40:10;;;;;;;15.20;13.60;;;;;;;;;;5139107;27;20231;-72
2021/05/31 02:42:37;;;;;;;0.10;0.10;;;;;;;;;;5124944;28;20389;-71
2021/05/31 02:45:03;;;;;;;0.10;0.10;;;;;;;;;;5132340;27;20416;-73
2021/05/31 02:47:28;;;;;;;0.10;0.10;;;;;;;;;;5131677;27;20239;-71
2021/05/31 02:49:54;;;;;;;0.10;0.10;;;;;;;;;;5126112;27;20213;-71
2021/05/31 02:52:20;;;;;;;0.10;0.10;;;;;;;;;;5136321;27;20399;-71
2021/05/31 02:54:47;;;;;;;0.10;0.10;;;;;;;;;;5128155;27;20438;-70
2021/05/31 02:57:13;;;;;;;3.80;3.13;;;;;;;;;;5128179;27;20212;-70
2021/05/31 02:59:38;;;;;;;0.10;0.10;;;;;;;;;;5134663;27;20199;-70
2021/05/31 03:02:04;;;;;;;0.10;0.10;;;;;;;;;;5124352;28;20201;-70
2021/05/31 03:04:30;;;;;;;0.10;0.10;;;;;;;;;;5144699;27;20203;-71
2021/05/31 03:06:55;;;;;;;0.10;0.10;;;;;;;;;;5130251;27;20201;-71
2021/05/31 03:09:21;;;;;;;0.10;0.10;;;;;;;;;;5139787;27;20221;-71
2021/05/31 03:11:48;;;;;;;0.10;0.10;;;;;;;;;;5137698;27;20208;-70
2021/05/31 03:14:14;;;;;;;0.13;0.13;;;;;;;;;;5126443;27;20207;-71
2021/05/31 03:16:40;;;;;;;0.10;0.10;;;;;;;;;;5125272;28;20373;-70
2021/05/31 03:19:06;;;;;;;0.10;0.10;;;;;;;;;;5124214;28;20459;-71
2021/05/31 03:21:31;;;;;;;0.10;0.10;;;;;;;;;;5124182;28;20199;-71
2021/05/31 03:23:57;;;;;;;0.10;0.10;;;;;;;;;;5124175;28;20487;-72
2021/05/31 03:26:23;;;;;;;0.10;0.10;;;;;;;;;;5124423;28;20391;-70
2021/05/31 03:28:50;;;;;;;0.10;0.10;;;;;;;;;;5136970;27;20239;-71
2021/05/31 03:31:16;;;;;;;0.10;0.10;;;;;;;;;;5124344;28;20479;-70
2021/05/31 03:33:42;;;;;;;0.10;0.10;;;;;;;;;;5124103;28;20210;-71
2021/05/31 03:36:07;;;;;;;0.10;0.10;;;;;;;;;;5123965;27;20202;-70
2021/05/31 03:38:33;;;;;;;0.10;0.10;;;;;;;;;;5129537;27;20222;-71
2021/05/31 03:40:59;;;;;;;0.10;0.10;;;;;;;;;;5128517;27;20220;-70
2021/05/31 03:43:25;;;;;;;0.10;0.10;;;;;;;;;;5131589;27;20204;-71
2021/05/31 03:45:52;;;;;;;0.10;0.10;;;;;;;;;;5134829;27;20494;-70
2021/05/31 03:48:19;;;;;;;0.10;0.10;;;;;;;;;;5124256;27;20227;-70
2021/05/31 03:50:44;;;;;;;0.10;0.10;;;;;;;;;;5123529;28;20207;-70
2021/05/31 03:53:10;;;;;;;0.10;0.10;;;;;;;;;;5129990;28;20198;-71
2021/05/31 03:55:36;;;;;;;0.10;0.10;;;;;;;;;;5135067;28;20525;-70
2021/05/31 03:58:02;;;;;;;0.10;0.10;;;;;;;;;;5129108;28;20212;-71
2021/05/31 04:00:28;;;;;;;0.10;0.10;;;;;;;;;;5136052;28;20207;-70
2021/05/31 04:02:56;;;;;;;0.10;0.10;;;;;;;;;;5130315;27;20200;-70
2021/05/31 04:05:23;;;;;;;0.10;0.10;;;;;;;;;;5131484;28;20237;-70
2021/05/31 04:13:14;;;;;;;0.10;0.10;;;;;;;;;;5133296;27;20422;-70
2021/05/31 04:15:40;;;;;;;0.10;0.10;;;;;;;;;;5136447;27;20210;-71
2021/05/31 04:18:07;;;;;;;0.10;0.10;;;;;;;;;;5134414;27;20514;-69
2021/05/31 04:20:33;;;;;;;0.10;0.10;;;;;;;;;;5128971;27;20255;-73
2021/05/31 04:22:58;;;;;;;0.10;0.10;;;;;;;;;;5143120;27;20502;-72
2021/05/31 04:25:25;;;;;;;0.10;0.10;;;;;;;;;;5129502;27;20214;-70
2021/05/31 04:27:50;;;;;;;0.10;0.10;;;;;;;;;;5130024;27;20203;-73
2021/05/31 04:30:17;;;;;;;0.10;0.10;;;;;;;;;;5133296;27;20283;-72
2021/05/31 04:32:42;;;;;;;0.10;0.10;;;;;;;;;;5135008;27;20204;-72
2021/05/31 04:35:10;;;;;;;0.10;0.10;;;;;;;;;;5130481;27;20279;-71
2021/05/31 04:37:36;;;;;;;0.10;0.10;;;;;;;;;;5133502;27;20206;-72
2021/05/31 04:40:03;;;;;;;0.20;0.20;;;;;;;;;;5135752;27;20292;-72
2021/05/31 04:42:29;;;;;;;0.10;0.10;;;;;;;;;;5129846;27;20489;-71
2021/05/31 04:44:54;;;;;;;0.10;0.10;;;;;;;;;;5138506;27;20214;-72
2021/05/31 04:47:20;;;;;;;0.10;0.10;;;;;;;;;;5128655;27;20209;-70
2021/05/31 04:49:46;;;;;;;0.10;0.10;;;;;;;;;;5137322;27;20225;-71
2021/05/31 04:52:13;;;;;;;0.10;0.10;;;;;;;;;;5134402;27;20203;-71
2021/05/31 04:54:40;;;;;;;0.10;0.10;;;;;;;;;;5138897;27;20204;-71
2021/05/31 04:57:06;;;;;;;0.10;0.10;;;;;;;;;;5139155;27;20403;-70
2021/05/31 04:59:31;;;;;;;0.10;0.10;;;;;;;;;;5131625;27;20201;-71
2021/05/31 05:01:57;;;;;;;0.10;0.10;;;;;;;;;;5143989;27;20204;-71
2021/05/31 05:04:23;;;;;;;0.10;0.10;;;;;;;;;;5132579;27;20199;-71
2021/05/31 05:06:48;;;;;;;0.10;0.10;;;;;;;;;;5153228;27;20203;-71
2021/05/31 05:09:16;;;;;;;0.10;0.10;;;;;;;;;;5137989;27;20225;-71
2021/05/31 05:11:41;;;;;;;0.10;0.10;;;;;;;;;;5131840;27;20210;-71
2021/05/31 05:14:07;;;;;;;0.10;0.10;;;;;;;;;;5136793;27;20208;-70
2021/05/31 05:16:33;;;;;;;0.10;0.10;;;;;;;;;;5132625;27;20486;-73
2021/05/31 05:18:59;;;;;;;0.10;0.10;;;;;;;;;;5135344;27;20212;-71
2021/05/31 05:21:24;;;;;;;0.10;0.10;;;;;;;;;;5129194;27;20210;-71
2021/05/31 05:23:50;;;;;;;0.10;0.10;;;;;;;;;;5126219;28;20564;-71
2021/05/31 05:26:19;;;;;;;0.10;0.10;;;;;;;;;;5139409;27;20475;-71
2021/05/31 05:28:45;;;;;;;0.10;0.10;;;;;;;;;;5136861;27;20224;-71
2021/05/31 05:31:11;;;;;;;0.10;0.10;;;;;;;;;;5130329;27;20210;-70
2021/05/31 05:33:37;;;;;;;0.10;0.10;;;;;;;;;;5128771;27;20208;-71
2021/05/31 05:36:14;;;;;;;0.10;0.10;;;;;;;;;;5136011;27;20253;-71
2021/05/31 05:41:40;;;;;;;0.10;0.10;;;;;;;;;;5116237;27;20302;-70
2021/05/31 05:44:24;;;;;;;0.10;0.10;;;;;;;;;;5132970;27;20196;-71
2021/05/31 05:46:51;;;;;;;0.10;0.10;;;;;;;;;;5126123;28;20263;-72
2021/05/31 05:49:17;;;;;;;0.10;0.10;;;;;;;;;;5125576;27;20423;-71
2021/05/31 05:51:43;;;;;;;0.10;0.10;;;;;;;;;;5125907;28;20320;-72
2021/05/31 05:54:09;;;;;;;0.10;0.10;;;;;;;;;;5126611;27;20418;-70
2021/05/31 05:56:36;;;;;;;0.10;0.10;;;;;;;;;;5138435;27;20202;-70
2021/05/31 05:59:02;;;;;;;0.10;0.10;;;;;;;;;;5128031;27;20213;-71
2021/05/31 06:01:28;;;;;;;0.10;0.10;;;;;;;;;;5133782;27;20307;-70
2021/05/31 06:03:54;;;;;;;0.10;0.10;;;;;;;;;;5140003;27;20465;-72
2021/05/31 06:06:20;;;;;;;0.10;0.10;;;;;;;;;;5129494;27;20212;-71
2021/05/31 06:08:46;;;;;;;0.10;0.10;;;;;;;;;;5130439;27;20218;-72
2021/05/31 06:11:12;;;;;;;0.10;0.10;;;;;;;;;;5136581;27;20380;-71
2021/05/31 06:13:40;;;;;;;0.10;0.10;;;;;;;;;;5137248;27;20201;-70
2021/05/31 06:16:06;;;;;;;0.10;0.10;;;;;;;;;;5140516;27;20237;-71
2021/05/31 06:18:32;;;;;;;0.10;0.10;;;;;;;;;;5129648;27;20495;-71
2021/05/31 06:20:58;;;;;;;0.10;0.10;;;;;;;;;;5137096;27;20419;-70
2021/05/31 06:23:24;;;;;;;0.10;0.10;;;;;;;;;;5130603;27;20263;-70
2021/05/31 06:25:50;;;;;;;0.10;0.10;;;;;;;;;;5125538;27;20202;-71
2021/05/31 06:28:16;;;;;;;0.10;0.10;;;;;;;;;;5137268;27;20338;-70
2021/05/31 06:30:43;;;;;;;0.10;0.10;;;;;;;;;;5126907;27;20202;-69
2021/05/31 06:33:09;;;;;;;0.10;0.10;;;;;;;;;;5124139;28;20499;-70
2021/05/31 06:35:36;;;;;;;0.10;0.10;;;;;;;;;;5138499;27;20281;-70
2021/05/31 06:38:02;;;;;;;0.10;0.10;;;;;;;;;;5132982;27;20415;-70
2021/05/31 06:40:27;;;;;;;0.10;0.10;;;;;;;;;;5126184;27;20198;-69
2021/05/31 06:42:54;;;;;;;0.10;0.10;;;;;;;;;;5131009;27;20198;-70
2021/05/31 06:45:22;;;;;;;0.10;0.10;;;;;;;;;;5125179;28;20221;-70
2021/05/31 06:47:49;;;;;;;0.10;0.10;;;;;;;;;;5128974;27;20215;-66
2021/05/31 06:50:16;;;;;;;0.10;0.10;;;;;;;;;;5144526;27;20271;-66
2021/05/31 06:52:41;;;;;;;0.10;0.10;;;;;;;;;;5141856;27;20201;-67
2021/05/31 06:55:08;;;;;;;0.10;0.10;;;;;;;;;;5139302;27;20198;-66
2021/05/31 06:57:34;;;;;;;0.10;0.10;;;;;;;;;;5130699;27;20205;-69
2021/05/31 06:59:59;;;;;;;0.10;0.10;;;;;;;;;;5132600;27;20198;-69
2021/05/31 07:02:26;;;;;;;0.10;0.10;;;;;;;;;;5133072;27;20222;-66
2021/05/31 07:04:53;;;;;;;0.10;0.10;;;;;;;;;;5125005;27;20203;-68
2021/05/31 07:07:19;;;;;;;0.10;0.10;;;;;;;;;;5124507;27;20207;-68
2021/05/31 07:09:46;;;;;;;0.10;0.10;;;;;;;;;;5134849;27;20219;-67
2021/05/31 07:12:14;;;;;;;0.10;0.10;;;;;;;;;;5134420;27;20200;-67
2021/05/31 07:14:43;;;;;;;0.10;0.10;;;;;;;;;;5127386;27;20211;-67
2021/05/31 07:17:09;;;;;;;0.10;0.10;;;;;;;;;;5128035;27;20205;-67
2021/05/31 07:19:35;;;;;;;0.10;0.10;;;;;;;;;;5130185;27;20200;-66
2021/05/31 07:22:02;;;;;;;0.10;0.10;;;;;;;;;;5126812;27;20212;-66
2021/05/31 07:24:30;;;;;;;0.03;0.03;;;;;;;;;;5132676;27;20210;-67
2021/05/31 07:26:56;;;;;;;0.10;0.10;;;;;;;;;;5128235;27;20485;-67
2021/05/31 07:29:23;;;;;;;0.10;0.10;;;;;;;;;;5132134;27;20225;-67
2021/05/31 07:31:49;;;;;;;0.10;0.10;;;;;;;;;;5131384;27;20293;-67
2021/05/31 07:34:15;;;;;;;0.00;0.00;;;;;;;;;;5124241;27;20201;-69
2021/05/31 07:36:41;;;;;;;0.10;0.10;;;;;;;;;;5128801;27;20243;-67
2021/05/31 07:39:10;;;;;;;0.10;0.10;;;;;;;;;;5129908;27;20552;-67
2021/05/31 07:41:36;;;;;;;0.10;0.10;;;;;;;;;;5129393;28;20201;-66
2021/05/31 07:44:02;;;;;;;0.10;0.10;;;;;;;;;;5149774;27;20200;-66
2021/05/31 07:46:28;;;;;;;0.10;0.10;;;;;;;;;;5139102;27;20205;-66
2021/05/31 07:48:54;;;;;;;0.10;0.10;;;;;;;;;;5129425;28;20230;-66
2021/05/31 07:51:21;;;;;;;0.10;0.10;;;;;;;;;;5134188;27;20205;-66
2021/05/31 07:53:47;;;;;;;0.10;0.10;;;;;;;;;;5136630;27;20509;-66
2021/05/31 07:56:14;;;;;;;0.10;0.10;;;;;;;;;;5128959;28;20453;-66
2021/05/31 07:58:41;;;;;;;0.10;0.10;;;;;;;;;;5133001;28;20413;-67
2021/05/31 08:01:07;;;;;;;0.10;0.10;;;;;;;;;;5135238;28;20203;-67
2021/05/31 08:03:33;;;;;;;0.10;0.10;;;;;;;;;;5136194;28;20307;-67
2021/05/31 08:05:59;;;;;;;0.10;0.10;;;;;;;;;;5129648;28;20210;-66
2021/05/31 08:08:25;;;;;;;0.10;0.10;;;;;;;;;;5139358;28;20556;-66
2021/05/31 08:10:51;;;;;;;0.10;0.10;;;;;;;;;;5137523;28;20306;-66
2021/05/31 08:13:19;;;;;;;0.03;0.03;;;;;;;;;;5133211;28;20199;-66
2021/05/31 08:15:45;;;;;;;0.10;0.10;;;;;;;;;;5143339;28;20574;-66
2021/05/31 08:18:11;;;;;;;0.00;0.00;;;;;;;;;;5138773;27;20202;-67
2021/05/31 08:20:37;;;;;;;0.10;0.10;;;;;;;;;;5125763;28;20334;-67
2021/05/31 08:23:03;;;;;;;0.10;0.10;;;;;;;;;;5124283;27;20214;-66
2021/05/31 08:25:29;;;;;;;0.10;0.10;;;;;;;;;;5125654;27;20207;-66
2021/05/31 08:27:55;;;;;;;0.10;0.10;;;;;;;;;;5135965;28;20230;-67
2021/05/31 08:30:23;;;;;;;0.10;0.10;;;;;;;;;;5126173;28;20218;-65
2021/05/31 08:32:49;;;;;;;0.00;0.00;;;;;;;;;;5134490;28;20230;-66
2021/05/31 08:35:15;;;;;;;0.10;0.10;;;;;;;;;;5129959;28;20215;-67
2021/05/31 08:37:41;;;;;;;0.10;0.10;;;;;;;;;;5129205;28;20237;-67
2021/05/31 08:40:08;;;;;;;0.07;0.07;;;;;;;;;;5135162;27;20535;-66
2021/05/31 08:42:35;;;;;;;0.00;0.00;;;;;;;;;;5132354;28;20385;-66
2021/05/31 08:45:02;;;;;;;0.10;0.10;;;;;;;;;;5136916;28;20202;-66
2021/05/31 08:47:29;;;;;;;0.10;0.10;;;;;;;;;;5129469;27;20313;-66
2021/05/31 08:49:56;;;;;;;0.10;0.10;;;;;;;;;;5125244;28;20216;-66
2021/05/31 08:52:22;;;;;;;0.00;0.00;;;;;;;;;;5136440;28;20274;-66
2021/05/31 08:54:48;;;;;;;0.03;0.03;;;;;;;;;;5136005;27;20207;-65
2021/05/31 08:57:14;;;;;;;0.00;0.00;;;;;;;;;;5154037;27;20196;-65
2021/05/31 08:59:40;;;;;;;0.00;0.00;;;;;;;;;;5135066;27;20233;-66
2021/05/31 09:02:07;;;;;;;0.00;0.00;;;;;;;;;;5140996;27;20202;-66
2021/05/31 09:04:44;;;;;;;0.05;0.05;;;;;;;;;;5138379;27;20385;-66
2021/05/31 09:07:10;;;;;;;0.00;0.00;;;;;;;;;;5142602;27;20194;-67
2021/05/31 09:09:39;;;;;;;0.10;0.10;;;;;;;;;;5131288;27;20525;-66
2021/05/31 09:12:07;;;;;;;0.10;0.10;;;;;;;;;;5137324;27;20212;-67
2021/05/31 09:14:33;;;;;;;0.00;0.00;;;;;;;;;;5132522;27;20388;-67
2021/05/31 09:16:59;;;;;;;0.00;0.00;;;;;;;;;;5140538;27;20213;-66
2021/05/31 09:19:25;;;;;;;0.00;0.00;;;;;;;;;;5136430;27;20197;-66
2021/05/31 09:21:53;;;;;;;0.03;0.03;;;;;;;;;;5141099;27;20221;-66
2021/05/31 09:24:23;;;;;;;0.00;0.00;;;;;;;;;;5126558;27;20266;-65
2021/05/31 09:26:49;;;;;;;0.00;0.00;;;;;;;;;;5126266;28;20200;-65
2021/05/31 09:29:15;;;;;;;0.00;0.00;;;;;;;;;;5136495;27;20229;-66
2021/05/31 09:31:41;;;;;;;0.10;0.10;;;;;;;;;;5145707;27;20202;-68
2021/05/31 09:34:08;;;;;;;0.00;0.00;;;;;;;;;;5143852;27;20201;-65
2021/05/31 09:36:35;;;;;;;0.00;0.00;;;;;;;;;;5145098;27;20197;-65
2021/05/31 09:39:05;;;;;;;0.10;0.10;;;;;;;;;;5135766;27;20219;-65
2021/05/31 09:41:32;;;;;;;0.03;0.03;;;;;;;;;;5141422;27;20207;-68
2021/05/31 09:43:59;;;;;;;0.00;0.00;;;;;;;;;;5135825;27;20203;-67
2021/05/31 09:46:35;;;;;;;0.00;0.00;;;;;;;;;;5128856;27;20458;-66
2021/05/31 09:49:01;;;;;;;0.17;0.17;;;;;;;;;;5128118;27;20223;-67
2021/05/31 09:51:27;;;;;;;0.10;0.10;;;;;;;;;;5128998;27;20270;-66
2021/05/31 09:53:55;;;;;;;0.08;0.08;;;;;;;;;;5134576;27;20394;-66
2021/05/31 09:56:22;;;;;;;0.00;0.00;;;;;;;;;;5130664;27;20541;-66
2021/05/31 09:58:50;;;;;;;0.00;0.00;;;;;;;;;;5154602;27;20209;-66
2021/05/31 10:01:16;;;;;;;0.00;0.00;;;;;;;;;;5142903;27;20206;-67
2021/05/31 10:03:54;;;;;;;0.10;0.10;;;;;;;;;;5129751;27;20203;-67
2021/05/31 10:06:32;;;;;;;0.10;0.10;;;;;;;;;;5131045;27;20193;-67
2021/05/31 10:08:58;;;;;;;0.00;0.00;;;;;;;;;;5140864;27;20337;-66
2021/05/31 10:11:26;;;;;;;0.08;0.08;;;;;;;;;;5131467;27;20211;-68
2021/05/31 10:13:52;;;;;;;0.10;0.10;;;;;;;;;;5143499;27;20206;-66
2021/05/31 10:16:17;;;;;;;0.00;0.00;;;;;;;;;;5138870;27;20508;-67
2021/05/31 10:18:45;;;;;;;0.00;0.00;;;;;;;;;;5131363;27;20213;-65
2021/05/31 10:21:13;;;;;;;0.00;0.00;;;;;;;;;;5131965;27;20202;-66
2021/05/31 10:23:39;;;;;;;0.10;0.10;;;;;;;;;;5130681;27;20490;-66
2021/05/31 10:26:09;;;;;;;0.00;0.00;;;;;;;;;;5129014;27;20205;-66
2021/05/31 10:28:40;;;;;;;0.00;0.00;;;;;;;;;;5136674;27;20200;-66
2021/05/31 10:31:06;;;;;;;0.00;0.00;;;;;;;;;;5125440;28;20199;-66
2021/05/31 10:33:37;;;;;;;0.00;0.00;;;;;;;;;;5133659;27;20357;-70
2021/05/31 10:36:11;;;;;;;0.10;0.10;;;;;;;;;;5134895;27;20313;-71
2021/05/31 10:38:38;;;;;;;0.10;0.10;;;;;;;;;;5131671;27;20288;-67
2021/05/31 10:41:10;;;;;;;0.10;0.10;;;;;;;;;;5125125;28;20204;-68
2021/05/31 10:43:41;;;;;;;0.10;0.10;;;;;;;;;;5134216;27;20219;-68
2021/05/31 10:46:07;;;;;;;0.10;0.10;;;;;;;;;;5125139;27;20201;-68
2021/05/31 10:48:41;;;;;;;0.00;0.00;;;;;;;;;;5146934;27;20226;-69
2021/05/31 10:51:12;;;;;;;0.03;0.03;;;;;;;;;;5148316;27;20193;-68
2021/05/31 10:53:38;;;;;;;0.00;0.00;;;;;;;;;;5152171;27;20276;-68
2021/05/31 10:56:05;;;;;;;0.00;0.00;;;;;;;;;;5144662;27;20235;-67
2021/05/31 10:58:32;;;;;;;0.10;0.10;;;;;;;;;;5132944;27;20241;-68
2021/05/31 11:01:01;;;;;;;0.00;0.00;;;;;;;;;;5135794;27;20196;-69
2021/05/31 11:03:27;;;;;;;0.00;0.00;;;;;;;;;;5145458;27;20249;-65
2021/05/31 11:05:53;;;;;;;0.00;0.00;;;;;;;;;;5133557;27;20428;-65
2021/05/31 11:08:27;;;;;;;0.00;0.00;;;;;;;;;;5133559;27;20208;-66
2021/05/31 11:10:57;;;;;;;0.00;0.00;;;;;;;;;;5139397;27;20222;-66
2021/05/31 11:13:22;;;;;;;0.10;0.10;;;;;;;;;;5125041;27;20218;-66
2021/05/31 11:16:01;;;;;;;0.00;0.00;;;;;;;;;;5126163;27;20201;-66
2021/05/31 11:18:32;;;;;;;0.00;0.00;;;;;;;;;;5134999;27;20204;-66
2021/05/31 11:20:58;;;;;;;0.00;0.00;;;;;;;;;;5134578;27;20381;-64
2021/05/31 11:23:24;;;;;;;0.00;0.00;;;;;;;;;;5135094;27;20209;-67
2021/05/31 11:25:50;;;;;;;0.00;0.00;;;;;;;;;;5127287;27;20209;-65
2021/05/31 11:28:17;;;;;;;0.00;0.00;;;;;;;;;;5126804;27;20211;-65
2021/05/31 11:30:43;;;;;;;0.00;0.00;;;;;;;;;;5129743;27;20446;-66
2021/05/31 11:33:13;;;;;;;0.03;0.03;;;;;;;;;;5143965;27;20201;-66
2021/05/31 11:35:39;;;;;;;0.00;0.00;;;;;;;;;;5140339;27;20267;-66
2021/05/31 11:38:05;;;;;;;0.10;0.10;;;;;;;;;;5143495;27;20245;-65
2021/05/31 11:40:32;;;;;;;0.00;0.00;;;;;;;;;;5136203;27;20207;-65
2021/05/31 11:42:59;;;;;;;0.00;0.00;;;;;;;;;;5132072;27;20480;-66
2021/05/31 11:45:26;;;;;;;0.00;0.00;;;;;;;;;;5126827;28;20275;-66
2021/05/31 11:47:56;;;;;;;0.00;0.00;;;;;;;;;;5133586;27;20220;-66
2021/05/31 11:50:25;;;;;;;0.10;0.10;;;;;;;;;;5127151;27;20412;-65
2021/05/31 11:52:51;;;;;;;0.00;0.00;;;;;;;;;;5147196;27;20212;-65
2021/05/31 11:55:18;;;;;;;0.00;0.00;;;;;;;;;;5146506;27;20204;-64
2021/05/31 11:57:44;;;;;;;0.00;0.00;;;;;;;;;;5125932;28;20207;-66
2021/05/31 12:00:10;;;;;;;0.00;0.00;;;;;;;;;;5127368;28;20204;-64
2021/05/31 12:02:38;;;;;;;0.00;0.00;;;;;;;;;;5129282;28;20241;-64
2021/05/31 12:05:04;;;;;;;0.00;0.00;;;;;;;;;;5130033;28;20200;-64
2021/05/31 12:07:31;;;;;;;0.10;0.10;;;;;;;;;;5136327;27;20217;-66
2021/05/31 12:09:57;;;;;;;0.00;0.00;;;;;;;;;;5135250;28;20263;-65
2021/05/31 12:12:24;;;;;;;0.00;0.00;;;;;;;;;;5140914;28;20201;-65
2021/05/31 12:14:50;;;;;;;0.32;0.32;;;;;;;;;;5136524;28;20202;-64
2021/05/31 12:17:17;;;;;;;0.00;0.00;;;;;;;;;;5136261;27;20227;-66
2021/05/31 12:19:43;;;;;;;0.00;0.00;;;;;;;;;;5138782;28;20238;-65
2021/05/31 12:22:09;;;;;;;0.10;0.10;;;;;;;;;;5133435;28;20211;-66
2021/05/31 12:24:37;;;;;;;0.00;0.00;;;;;;;;;;5139391;27;20212;-65
2021/05/31 12:27:04;;;;;;;0.00;0.00;;;;;;;;;;5133325;27;20233;-63
2021/05/31 12:29:33;;;;;;;0.00;0.00;;;;;;;;;;5139319;27;20224;-66
2021/05/31 12:32:00;;;;;;;0.00;0.00;;;;;;;;;;5135478;27;20272;-65
2021/05/31 12:34:26;;;;;;;0.00;0.00;;;;;;;;;;5135781;27;20500;-65
2021/05/31 12:36:52;;;;;;;0.00;0.00;;;;;;;;;;5145805;27;20401;-66
2021/05/31 12:39:18;;;;;;;0.00;0.00;;;;;;;;;;5135272;27;20224;-65
2021/05/31 12:41:45;;;;;;;0.00;0.00;;;;;;;;;;5132110;27;20232;-65
2021/05/31 12:44:11;;;;;;;0.00;0.00;;;;;;;;;;5142338;27;20216;-66
2021/05/31 12:46:38;;;;;;;0.00;0.00;;;;;;;;;;5145669;27;20201;-65
2021/05/31 12:49:04;;;;;;;0.00;0.00;;;;;;;;;;5134671;27;20223;-64
2021/05/31 12:51:30;;;;;;;0.00;0.00;;;;;;;;;;5138958;27;20228;-65
2021/05/31 12:53:59;;;;;;;0.00;0.00;;;;;;;;;;5138563;27;20223;-64
2021/05/31 12:56:28;;;;;;;0.00;0.00;;;;;;;;;;5144605;27;20206;-65
2021/05/31 12:59:01;;;;;;;0.00;0.00;;;;;;;;;;5134844;27;20258;-68
2021/05/31 13:01:28;;;;;;;0.00;0.00;;;;;;;;;;5133814;27;20202;-68
2021/05/31 13:03:55;;;;;;;0.00;0.00;;;;;;;;;;5158871;27;20394;-68
2021/05/31 13:06:30;;;;;;;0.00;0.00;;;;;;;;;;5139936;27;20197;-67
2021/05/31 13:08:56;;;;;;;0.00;0.00;;;;;;;;;;5146883;27;20205;-68
2021/05/31 13:11:22;;;;;;;0.00;0.00;;;;;;;;;;5141882;27;20202;-70
2021/05/31 13:13:48;;;;;;;0.00;0.00;;;;;;;;;;5130939;27;20505;-68
2021/05/31 13:16:25;;;;;;;0.00;0.00;;;;;;;;;;5133554;27;20220;-68
2021/05/31 13:18:52;;;;;;;0.00;0.00;;;;;;;;;;5134571;27;20261;-69
2021/05/31 13:21:19;;;;;;;0.00;0.00;;;;;;;;;;5132396;27;20263;-68
2021/05/31 13:23:46;;;;;;;0.00;0.00;;;;;;;;;;5140401;27;20209;-68
2021/05/31 13:26:13;;;;;;;0.00;0.00;;;;;;;;;;5131213;27;20250;-68
2021/05/31 13:28:41;;;;;;;0.00;0.00;;;;;;;;;;5138341;27;20210;-68
2021/05/31 13:31:07;;;;;;;0.00;0.00;;;;;;;;;;5131051;27;20551;-68
2021/05/31 13:33:41;;;;;;;0.10;0.10;;;;;;;;;;5130656;27;20204;-68
2021/05/31 13:36:11;;;;;;;0.00;0.00;;;;;;;;;;5133134;27;20201;-69
2021/05/31 13:38:37;;;;;;;0.00;0.00;;;;;;;;;;5142630;27;20596;-68
2021/05/31 13:41:03;;;;;;;0.00;0.00;;;;;;;;;;5130324;27;20283;-68
2021/05/31 13:43:29;;;;;;;0.10;0.10;;;;;;;;;;5136756;27;20223;-67
2021/05/31 13:45:56;;;;;;;0.00;0.00;;;;;;;;;;5143482;27;20362;-67
2021/05/31 13:48:22;;;;;;;0.00;0.00;;;;;;;;;;5140265;27;20223;-67
2021/05/31 13:50:51;;;;;;;0.00;0.00;;;;;;;;;;5130314;27;20236;-67
2021/05/31 13:53:17;;;;;;;0.00;0.00;;;;;;;;;;5134768;27;20267;-68
2021/05/31 13:55:43;;;;;;;0.00;0.00;;;;;;;;;;5146200;27;20207;-67
2021/05/31 13:58:10;;;;;;;0.00;0.00;;;;;;;;;;5138935;27;20273;-68
2021/05/31 14:00:36;;;;;;;0.00;0.00;;;;;;;;;;5137875;27;20478;-67
2021/05/31 14:03:02;;;;;;;0.00;0.00;;;;;;;;;;5129596;27;20225;-66
2021/05/31 14:05:29;;;;;;;0.08;0.08;;;;;;;;;;5139740;27;20209;-68
2021/05/31 14:07:57;;;;;;;0.00;0.00;;;;;;;;;;5139162;27;20204;-69
2021/05/31 14:10:23;;;;;;;0.00;0.00;;;;;;;;;;5139966;27;20350;-68
2021/05/31 14:12:49;;;;;;;0.00;0.00;;;;;;;;;;5125359;28;20415;-68
2021/05/31 14:15:16;;;;;;;0.00;0.00;;;;;;;;;;5147617;27;20196;-68
2021/05/31 14:20:46;;;;;;;0.00;0.00;;;;;;;;;;5130241;27;20213;-69
2021/05/31 14:23:13;;;;;;;0.00;0.00;;;;;;;;;;5143990;27;20477;-68
2021/05/31 14:25:38;;;;;;;0.00;0.00;;;;;;;;;;5129449;27;20206;-69
2021/05/31 14:28:05;;;;;;;0.00;0.00;;;;;;;;;;5131041;27;20242;-69
2021/05/31 14:30:30;;;;;;;0.00;0.00;;;;;;;;;;5135581;27;20229;-69
2021/05/31 14:32:58;;;;;;;0.10;0.10;;;;;;;;;;5138407;27;20217;-70
2021/05/31 14:35:24;;;;;;;0.00;0.00;;;;;;;;;;5138358;27;20227;-70
2021/05/31 14:37:50;;;;;;;0.00;0.00;;;;;;;;;;5139246;27;20225;-69
2021/05/31 14:40:17;;;;;;;0.00;0.00;;;;;;;;;;5131124;27;20268;-71
2021/05/31 14:42:43;;;;;;;0.00;0.00;;;;;;;;;;5130174;27;20209;-69
2021/05/31 14:45:10;;;;;;;0.00;0.00;;;;;;;;;;5135701;27;20204;-71
2021/05/31 14:47:37;;;;;;;0.00;0.00;;;;;;;;;;5137307;27;20313;-70
2021/05/31 14:50:03;;;;;;;0.00;0.00;;;;;;;;;;5131066;27;20298;-69
2021/05/31 14:52:33;;;;;;;0.08;0.08;;;;;;;;;;5135565;27;20361;-70